Ruby M — WCX3165 — position and weather

sailwx.info

Track history (hours):
 
Tides and Currents Weather Stations Pressure Air Temp Water Temp Dewpoint Dewpoint Depression Visibility Wind Speed Wind Dir Waves Ship Positions

Ruby M

Owner: Dann Ocean Towing, TAMPA, FL. More information available from US FCC via Universal Licensing System and Coast Guard Vessel Documentation Center.

Last reported at 2017-Nov-20 00:30 UTC. Time now 2017-Nov-21 10:22 UTC.
Position N 40°39' W 074°02'.

Length 37 m; draft 3.4 m.

Type: Tow > 200 m length. MMSI: 366994750.

Date/timePositionNaut miles runAvg speedWind from/ knotsBaromVisibWave heightAir tempDewpointWater temp
2017-Nov-20 00:30N 40°39' W 074°02'0 0.0
2017-Nov-20 00:00N 40°39' W 074°02'0 0.0
2017-Nov-19 23:30N 40°39' W 074°02'0 0.0
2017-Nov-19 23:00N 40°39' W 074°02'0 0.0
2017-Nov-19 22:29N 40°39' W 074°02'0 0.0
2017-Nov-19 22:00N 40°39' W 074°02'0 0.0
2017-Nov-19 21:30N 40°39' W 074°02'0 0.0
2017-Nov-19 21:00N 40°39' W 074°02'0 0.0
2017-Nov-19 20:30N 40°39' W 074°02'0 0.0
2017-Nov-19 20:00N 40°39' W 074°02'0 0.0
2017-Nov-19 19:30N 40°39' W 074°02'0 0.0
2017-Nov-19 19:00N 40°39' W 074°02'0 0.0
2017-Nov-19 18:30N 40°39' W 074°02'0 0.0
2017-Nov-19 18:00N 40°39' W 074°02'0 0.0
2017-Nov-19 17:30N 40°39' W 074°02'0 0.0
2017-Nov-19 17:00N 40°39' W 074°02'0 0.0
2017-Nov-19 16:30N 40°39' W 074°02'0 0.0
2017-Nov-19 16:00N 40°39' W 074°02'0 0.0
2017-Nov-19 15:30N 40°39' W 074°02'0 0.0
2017-Nov-19 15:00N 40°39' W 074°02'0 0.0
2017-Nov-19 14:30N 40°39' W 074°02'0 0.0
2017-Nov-19 14:00N 40°39' W 074°02'0 0.0
2017-Nov-19 13:30N 40°39' W 074°02'0 0.0
2017-Nov-19 13:00N 40°39' W 074°02'0 0.0
2017-Nov-19 12:30N 40°39' W 074°02'0 0.0
2017-Nov-19 12:00N 40°39' W 074°02'0 0.0
2017-Nov-19 11:30N 40°39' W 074°02'0 0.0
2017-Nov-19 11:00N 40°39' W 074°02'0 0.0
2017-Nov-19 10:30N 40°39' W 074°02'0 0.0
2017-Nov-19 10:00N 40°39' W 074°02'0 0.0
2017-Nov-19 09:30N 40°39' W 074°02'0 0.0
2017-Nov-19 09:00N 40°39' W 074°02'0 0.0
2017-Nov-19 08:30N 40°39' W 074°02'0 0.0
2017-Nov-19 08:00N 40°39' W 074°02'0 0.0
2017-Nov-19 07:30N 40°39' W 074°02'0 0.0
2017-Nov-19 07:00N 40°39' W 074°02'0 0.0
2017-Nov-19 06:30N 40°39' W 074°02'0 0.0
2017-Nov-19 06:00N 40°39' W 074°02'0 0.0
2017-Nov-19 05:30N 40°39' W 074°02'0 0.0
2017-Nov-19 05:00N 40°39' W 074°02'0 0.0
2017-Nov-19 04:30N 40°39' W 074°02'0 0.0
2017-Nov-19 04:00N 40°39' W 074°02'0 0.0
2017-Nov-19 03:30N 40°39' W 074°02'0 0.0
2017-Nov-19 03:00N 40°39' W 074°02'0 0.1
2017-Nov-19 02:30N 40°39' W 074°02'0 0.1
2017-Nov-19 02:00N 40°39' W 074°02'0 0.0
2017-Nov-19 01:30N 40°39' W 074°02'0 0.0
2017-Nov-19 01:00N 40°39' W 074°02'0 0.0
2017-Nov-19 00:30N 40°39' W 074°02'0 0.0
2017-Nov-19 00:00N 40°39' W 074°02'0 0.0
2017-Nov-18 23:30N 40°39' W 074°02'0 0.0
2017-Nov-18 23:00N 40°39' W 074°02'0 0.0
2017-Nov-18 22:30N 40°39' W 074°02'0 0.0
2017-Nov-18 22:00N 40°39' W 074°02'0 0.0
2017-Nov-18 21:30N 40°39' W 074°02'0 0.1
2017-Nov-18 21:00N 40°39' W 074°02'0 0.0
2017-Nov-18 20:30N 40°39' W 074°02'0 0.0
2017-Nov-18 20:00N 40°39' W 074°02'0 0.1
2017-Nov-18 19:30N 40°39' W 074°02'0 0.1
2017-Nov-18 19:00N 40°39' W 074°02'0 0.0
2017-Nov-18 18:30N 40°39' W 074°02'0 0.0
2017-Nov-18 18:00N 40°39' W 074°02'0 0.0
2017-Nov-18 17:30N 40°39' W 074°02'0 0.0
2017-Nov-18 17:00N 40°39' W 074°02'1 1.5
2017-Nov-18 16:30N 40°40' W 074°02'4 8.4
2017-Nov-18 16:00N 40°44' W 074°01'4 7.1
2017-Nov-18 15:30N 40°47' W 073°59'3 6.3
2017-Nov-18 15:00N 40°50' W 073°58'3 5.8
2017-Nov-18 14:30N 40°53' W 073°56'5 1.5
2017-Nov-18 11:16N 40°57' W 073°54'310.5
2017-Nov-18 10:59N 40°54' W 073°55'510.5
2017-Nov-18 10:30N 40°50' W 073°58'5 9.8
2017-Nov-18 10:00N 40°46' W 074°01'5 9.3
2017-Nov-18 09:31N 40°41' W 074°02'1 2.6
2017-Nov-18 09:00N 40°40' W 074°01'0 0.4
2017-Nov-18 08:30N 40°40' W 074°01'3 6.3
2017-Nov-18 08:00N 40°39' W 074°05'1 1.0
2017-Nov-18 06:42N 40°39' W 074°07'0 0.0
2017-Nov-18 06:30N 40°39' W 074°07'0 0.2
2017-Nov-18 05:59N 40°39' W 074°07'4 8.2
2017-Nov-18 05:30N 40°39' W 074°02'1 2.3
2017-Nov-18 05:00N 40°40' W 074°00'0 0.0
2017-Nov-18 04:30N 40°40' W 074°00'1 2.9
2017-Nov-18 04:00N 40°39' W 074°02'3 5.5
2017-Nov-18 03:30N 40°36' W 074°02'2 5.1
2017-Nov-18 03:00N 40°34' W 074°01'0 0.3
2017-Nov-18 02:30N 40°34' W 074°01'0 0.7
2017-Nov-18 02:00N 40°34' W 074°01'1 1.7
2017-Nov-18 01:30N 40°33' W 074°01'43 8.9
2017-Nov-17 20:42N 39°50' W 074°02'3 9.6
2017-Nov-17 20:25N 39°47' W 074°03'4 9.7
2017-Nov-17 19:59N 39°43' W 074°04'5 9.9
2017-Nov-17 19:30N 39°39' W 074°06'5 9.9
2017-Nov-17 19:00N 39°34' W 074°09'190 7.0
2017-Nov-16 15:48N 36°55' W 076°20'310.3
2017-Nov-16 15:30N 36°52' W 076°20'4 7.5
2017-Nov-16 15:00N 36°49' W 076°17'2 4.6
2017-Nov-16 14:30N 36°46' W 076°18'1 1.2
2017-Nov-16 14:00N 36°46' W 076°18'1 1.5
2017-Nov-16 13:30N 36°47' W 076°18'2 3.0
2017-Nov-16 13:00N 36°48' W 076°18'3 6.3
2017-Nov-16 12:30N 36°51' W 076°18'4 8.0
2017-Nov-16 12:00N 36°55' W 076°20'189 6.8
2017-Nov-15 08:14N 39°33' W 074°09'2 7.9
2017-Nov-15 07:59N 39°35' W 074°08'4 7.9
2017-Nov-15 07:29N 39°38' W 074°06'4 7.9
2017-Nov-15 06:58N 39°42' W 074°03'47 7.5
2017-Nov-15 00:43N 40°28' W 073°56'2 7.0
2017-Nov-15 00:28N 40°30' W 073°57'4 8.3
2017-Nov-15 00:00N 40°32' W 074°01'2 4.9
2017-Nov-14 23:30N 40°35' W 074°01'3 5.1
2017-Nov-14 23:00N 40°37' W 074°03'4 7.2
2017-Nov-14 22:30N 40°40' W 074°01'3 5.6
2017-Nov-14 22:00N 40°43' W 073°59'3 5.6
2017-Nov-14 21:30N 40°45' W 073°58'3 4.5
2017-Nov-14 20:52N 40°48' W 073°56'1 0.9
2017-Nov-14 20:12N 40°48' W 073°56'1 1.8
2017-Nov-14 19:54N 40°48' W 073°56'3 7.1
2017-Nov-14 19:30N 40°45' W 073°58'3 6.8
2017-Nov-14 19:00N 40°42' W 073°60'3 6.7
2017-Nov-14 18:30N 40°39' W 074°02'1 1.2
2017-Nov-14 18:00N 40°39' W 074°02'4 7.4
2017-Nov-14 17:30N 40°38' W 074°07'3 6.2
2017-Nov-14 17:01N 40°39' W 074°03'1 1.9
2017-Nov-14 16:30N 40°39' W 074°02'3 6.1
2017-Nov-14 16:00N 40°42' W 074°00'5 9.7
2017-Nov-14 15:30N 40°46' W 073°57'2 0.6
2017-Nov-14 11:22N 40°48' W 073°56'0 0.1
2017-Nov-14 10:55N 40°48' W 073°56'1 3.5
2017-Nov-14 10:30N 40°47' W 073°56'4 8.0
2017-Nov-14 10:00N 40°43' W 073°58'5 9.4
2017-Nov-14 09:30N 40°40' W 074°03'3 5.2
2017-Nov-14 09:00N 40°39' W 074°06'0 0.0
2017-Nov-14 08:30N 40°39' W 074°06'0 0.0
2017-Nov-14 08:00N 40°39' W 074°06'0 0.0
2017-Nov-14 07:30N 40°39' W 074°06'0 0.0
2017-Nov-14 07:00N 40°39' W 074°06'0 0.0
2017-Nov-14 06:30N 40°39' W 074°06'0 0.0
2017-Nov-14 06:01N 40°39' W 074°06'0 0.0
2017-Nov-14 05:30N 40°39' W 074°06'0 0.0
2017-Nov-14 05:00N 40°39' W 074°06'0 0.0
2017-Nov-14 04:30N 40°39' W 074°06'0 0.0
2017-Nov-14 04:00N 40°39' W 074°06'0 0.0
2017-Nov-14 03:30N 40°39' W 074°06'0 0.0
2017-Nov-14 03:00N 40°39' W 074°06'0 0.0
2017-Nov-14 02:30N 40°39' W 074°06'0 0.0
2017-Nov-14 02:00N 40°39' W 074°06'1 1.7
2017-Nov-14 01:30N 40°39' W 074°07'0 0.7
2017-Nov-14 01:00N 40°38' W 074°07'3 7.1
2017-Nov-14 00:30N 40°38' W 074°12'0 0.0
2017-Nov-14 00:00N 40°38' W 074°12'0 0.0
2017-Nov-13 23:29N 40°38' W 074°12'0 0.0
2017-Nov-13 23:00N 40°38' W 074°12'0 0.0
2017-Nov-13 22:30N 40°38' W 074°12'0 0.0
2017-Nov-13 22:00N 40°38' W 074°12'114 4.3
2017-Nov-12 19:24N 38°49' W 074°51'13 5.6
2017-Nov-12 17:02N 38°37' W 074°59'0 5.7
2017-Nov-12 16:59N 38°36' W 074°59'3 5.8
2017-Nov-12 16:30N 38°34' W 074°59'12 5.4
2017-Nov-12 14:18N 38°22' W 074°58'2 5.2
2017-Nov-12 13:56N 38°20' W 074°59'  
Track history (hours):
 
Tides and Currents Weather Stations Pressure Air Temp Water Temp Dewpoint Dewpoint Depression Visibility Wind Speed Wind Dir Waves Ship Positions

Ruby M

Owner: Dann Ocean Towing, TAMPA, FL. More information available from US FCC via Universal Licensing System and Coast Guard Vessel Documentation Center.

Last reported at 2017-Nov-20 00:30 UTC. Time now 2017-Nov-21 10:22 UTC.
Position N 40°39' W 074°02'.

Length 37 m; draft 3.4 m.

Type: Tow > 200 m length. MMSI: 366994750.

Date/timePositionNaut miles runAvg speedWind from/ knotsBaromVisibWave heightAir tempDewpointWater temp
2017-Nov-20 00:30N 40°39' W 074°02'0 0.0
2017-Nov-20 00:00N 40°39' W 074°02'0 0.0
2017-Nov-19 23:30N 40°39' W 074°02'0 0.0
2017-Nov-19 23:00N 40°39' W 074°02'0 0.0
2017-Nov-19 22:29N 40°39' W 074°02'0 0.0
2017-Nov-19 22:00N 40°39' W 074°02'0 0.0
2017-Nov-19 21:30N 40°39' W 074°02'0 0.0
2017-Nov-19 21:00N 40°39' W 074°02'0 0.0
2017-Nov-19 20:30N 40°39' W 074°02'0 0.0
2017-Nov-19 20:00N 40°39' W 074°02'0 0.0
2017-Nov-19 19:30N 40°39' W 074°02'0 0.0
2017-Nov-19 19:00N 40°39' W 074°02'0 0.0
2017-Nov-19 18:30N 40°39' W 074°02'0 0.0
2017-Nov-19 18:00N 40°39' W 074°02'0 0.0
2017-Nov-19 17:30N 40°39' W 074°02'0 0.0
2017-Nov-19 17:00N 40°39' W 074°02'0 0.0
2017-Nov-19 16:30N 40°39' W 074°02'0 0.0
2017-Nov-19 16:00N 40°39' W 074°02'0 0.0
2017-Nov-19 15:30N 40°39' W 074°02'0 0.0
2017-Nov-19 15:00N 40°39' W 074°02'0 0.0
2017-Nov-19 14:30N 40°39' W 074°02'0 0.0
2017-Nov-19 14:00N 40°39' W 074°02'0 0.0
2017-Nov-19 13:30N 40°39' W 074°02'0 0.0
2017-Nov-19 13:00N 40°39' W 074°02'0 0.0
2017-Nov-19 12:30N 40°39' W 074°02'0 0.0
2017-Nov-19 12:00N 40°39' W 074°02'0 0.0
2017-Nov-19 11:30N 40°39' W 074°02'0 0.0
2017-Nov-19 11:00N 40°39' W 074°02'0 0.0
2017-Nov-19 10:30N 40°39' W 074°02'0 0.0
2017-Nov-19 10:00N 40°39' W 074°02'0 0.0
2017-Nov-19 09:30N 40°39' W 074°02'0 0.0
2017-Nov-19 09:00N 40°39' W 074°02'0 0.0
2017-Nov-19 08:30N 40°39' W 074°02'0 0.0
2017-Nov-19 08:00N 40°39' W 074°02'0 0.0
2017-Nov-19 07:30N 40°39' W 074°02'0 0.0
2017-Nov-19 07:00N 40°39' W 074°02'0 0.0
2017-Nov-19 06:30N 40°39' W 074°02'0 0.0
2017-Nov-19 06:00N 40°39' W 074°02'0 0.0
2017-Nov-19 05:30N 40°39' W 074°02'0 0.0
2017-Nov-19 05:00N 40°39' W 074°02'0 0.0
2017-Nov-19 04:30N 40°39' W 074°02'0 0.0
2017-Nov-19 04:00N 40°39' W 074°02'0 0.0
2017-Nov-19 03:30N 40°39' W 074°02'0 0.0
2017-Nov-19 03:00N 40°39' W 074°02'0 0.1
2017-Nov-19 02:30N 40°39' W 074°02'0 0.1
2017-Nov-19 02:00N 40°39' W 074°02'0 0.0
2017-Nov-19 01:30N 40°39' W 074°02'0 0.0
2017-Nov-19 01:00N 40°39' W 074°02'0 0.0
2017-Nov-19 00:30N 40°39' W 074°02'0 0.0
2017-Nov-19 00:00N 40°39' W 074°02'0 0.0
2017-Nov-18 23:30N 40°39' W 074°02'0 0.0
2017-Nov-18 23:00N 40°39' W 074°02'0 0.0
2017-Nov-18 22:30N 40°39' W 074°02'0 0.0
2017-Nov-18 22:00N 40°39' W 074°02'0 0.0
2017-Nov-18 21:30N 40°39' W 074°02'0 0.1
2017-Nov-18 21:00N 40°39' W 074°02'0 0.0
2017-Nov-18 20:30N 40°39' W 074°02'0 0.0
2017-Nov-18 20:00N 40°39' W 074°02'0 0.1
2017-Nov-18 19:30N 40°39' W 074°02'0 0.1
2017-Nov-18 19:00N 40°39' W 074°02'0 0.0
2017-Nov-18 18:30N 40°39' W 074°02'0 0.0
2017-Nov-18 18:00N 40°39' W 074°02'0 0.0
2017-Nov-18 17:30N 40°39' W 074°02'0 0.0
2017-Nov-18 17:00N 40°39' W 074°02'1 1.5
2017-Nov-18 16:30N 40°40' W 074°02'4 8.4
2017-Nov-18 16:00N 40°44' W 074°01'4 7.1
2017-Nov-18 15:30N 40°47' W 073°59'3 6.3
2017-Nov-18 15:00N 40°50' W 073°58'3 5.8
2017-Nov-18 14:30N 40°53' W 073°56'5 1.5
2017-Nov-18 11:16N 40°57' W 073°54'310.5
2017-Nov-18 10:59N 40°54' W 073°55'510.5
2017-Nov-18 10:30N 40°50' W 073°58'5 9.8
2017-Nov-18 10:00N 40°46' W 074°01'5 9.3
2017-Nov-18 09:31N 40°41' W 074°02'1 2.6
2017-Nov-18 09:00N 40°40' W 074°01'0 0.4
2017-Nov-18 08:30N 40°40' W 074°01'3 6.3
2017-Nov-18 08:00N 40°39' W 074°05'1 1.0
2017-Nov-18 06:42N 40°39' W 074°07'0 0.0
2017-Nov-18 06:30N 40°39' W 074°07'0 0.2
2017-Nov-18 05:59N 40°39' W 074°07'4 8.2
2017-Nov-18 05:30N 40°39' W 074°02'1 2.3
2017-Nov-18 05:00N 40°40' W 074°00'0 0.0
2017-Nov-18 04:30N 40°40' W 074°00'1 2.9
2017-Nov-18 04:00N 40°39' W 074°02'3 5.5
2017-Nov-18 03:30N 40°36' W 074°02'2 5.1
2017-Nov-18 03:00N 40°34' W 074°01'0 0.3
2017-Nov-18 02:30N 40°34' W 074°01'0 0.7
2017-Nov-18 02:00N 40°34' W 074°01'1 1.7
2017-Nov-18 01:30N 40°33' W 074°01'43 8.9
2017-Nov-17 20:42N 39°50' W 074°02'3 9.6
2017-Nov-17 20:25N 39°47' W 074°03'4 9.7
2017-Nov-17 19:59N 39°43' W 074°04'5 9.9
2017-Nov-17 19:30N 39°39' W 074°06'5 9.9
2017-Nov-17 19:00N 39°34' W 074°09'190 7.0
2017-Nov-16 15:48N 36°55' W 076°20'310.3
2017-Nov-16 15:30N 36°52' W 076°20'4 7.5
2017-Nov-16 15:00N 36°49' W 076°17'2 4.6
2017-Nov-16 14:30N 36°46' W 076°18'1 1.2
2017-Nov-16 14:00N 36°46' W 076°18'1 1.5
2017-Nov-16 13:30N 36°47' W 076°18'2 3.0
2017-Nov-16 13:00N 36°48' W 076°18'3 6.3
2017-Nov-16 12:30N 36°51' W 076°18'4 8.0
2017-Nov-16 12:00N 36°55' W 076°20'189 6.8
2017-Nov-15 08:14N 39°33' W 074°09'2 7.9
2017-Nov-15 07:59N 39°35' W 074°08'4 7.9
2017-Nov-15 07:29N 39°38' W 074°06'4 7.9
2017-Nov-15 06:58N 39°42' W 074°03'47 7.5
2017-Nov-15 00:43N 40°28' W 073°56'2 7.0
2017-Nov-15 00:28N 40°30' W 073°57'4 8.3
2017-Nov-15 00:00N 40°32' W 074°01'2 4.9
2017-Nov-14 23:30N 40°35' W 074°01'3 5.1
2017-Nov-14 23:00N 40°37' W 074°03'4 7.2
2017-Nov-14 22:30N 40°40' W 074°01'3 5.6
2017-Nov-14 22:00N 40°43' W 073°59'3 5.6
2017-Nov-14 21:30N 40°45' W 073°58'3 4.5
2017-Nov-14 20:52N 40°48' W 073°56'1 0.9
2017-Nov-14 20:12N 40°48' W 073°56'1 1.8
2017-Nov-14 19:54N 40°48' W 073°56'3 7.1
2017-Nov-14 19:30N 40°45' W 073°58'3 6.8
2017-Nov-14 19:00N 40°42' W 073°60'3 6.7
2017-Nov-14 18:30N 40°39' W 074°02'1 1.2
2017-Nov-14 18:00N 40°39' W 074°02'4 7.4
2017-Nov-14 17:30N 40°38' W 074°07'3 6.2
2017-Nov-14 17:01N 40°39' W 074°03'1 1.9
2017-Nov-14 16:30N 40°39' W 074°02'3 6.1
2017-Nov-14 16:00N 40°42' W 074°00'5 9.7
2017-Nov-14 15:30N 40°46' W 073°57'2 0.6
2017-Nov-14 11:22N 40°48' W 073°56'0 0.1
2017-Nov-14 10:55N 40°48' W 073°56'1 3.5
2017-Nov-14 10:30N 40°47' W 073°56'4 8.0
2017-Nov-14 10:00N 40°43' W 073°58'5 9.4
2017-Nov-14 09:30N 40°40' W 074°03'3 5.2
2017-Nov-14 09:00N 40°39' W 074°06'0 0.0
2017-Nov-14 08:30N 40°39' W 074°06'0 0.0
2017-Nov-14 08:00N 40°39' W 074°06'0 0.0
2017-Nov-14 07:30N 40°39' W 074°06'0 0.0
2017-Nov-14 07:00N 40°39' W 074°06'0 0.0
2017-Nov-14 06:30N 40°39' W 074°06'0 0.0
2017-Nov-14 06:01N 40°39' W 074°06'0 0.0
2017-Nov-14 05:30N 40°39' W 074°06'0 0.0
2017-Nov-14 05:00N 40°39' W 074°06'0 0.0
2017-Nov-14 04:30N 40°39' W 074°06'0 0.0
2017-Nov-14 04:00N 40°39' W 074°06'0 0.0
2017-Nov-14 03:30N 40°39' W 074°06'0 0.0
2017-Nov-14 03:00N 40°39' W 074°06'0 0.0
2017-Nov-14 02:30N 40°39' W 074°06'0 0.0
2017-Nov-14 02:00N 40°39' W 074°06'1 1.7
2017-Nov-14 01:30N 40°39' W 074°07'0 0.7
2017-Nov-14 01:00N 40°38' W 074°07'3 7.1
2017-Nov-14 00:30N 40°38' W 074°12'0 0.0
2017-Nov-14 00:00N 40°38' W 074°12'0 0.0
2017-Nov-13 23:29N 40°38' W 074°12'0 0.0
2017-Nov-13 23:00N 40°38' W 074°12'0 0.0
2017-Nov-13 22:30N 40°38' W 074°12'0 0.0
2017-Nov-13 22:00N 40°38' W 074°12'114 4.3
2017-Nov-12 19:24N 38°49' W 074°51'13 5.6
2017-Nov-12 17:02N 38°37' W 074°59'0 5.7
2017-Nov-12 16:59N 38°36' W 074°59'3 5.8
2017-Nov-12 16:30N 38°34' W 074°59'12 5.4
2017-Nov-12 14:18N 38°22' W 074°58'2 5.2
2017-Nov-12 13:56N 38°20' W 074°59'  

Dump ship's entire track history